ADDS METAR Data INFO
IDs: Format: Raw Decoded Include TAF

Data at: 2054 UTC 26 May 2017

KEVW 261953Z AUTO 23016KT 10SM BKN075 OVC095 09/00 A2994 RMK AO2 SLP088 T00890000
KEVW 261853Z AUTO 22017G24KT 10SM BKN060 OVC080 10/02 A2991 RMK AO2 RAE10 SLP081 P0000 T01000017
KEVW 261753Z AUTO 21012KT 10SM -RA BKN044 BKN055 OVC080 07/04 A2990 RMK AO2 SLP083 P0001 60002 T00670039 10078 20050 51016
KEVW 261653Z AUTO 26005KT 10SM -RA FEW035 OVC046 06/03 A2990 RMK AO2 SLP084 P0001 T00610033
KEVW 261553Z AUTO 33006KT 10SM -RA BKN039 OVC048 06/04 A2989 RMK AO2 RAB09 SLP074 P0000 T00610044
KEVW 261453Z AUTO 06013KT 10SM BKN065 OVC080 08/02 A2985 RMK AO2 RAB03E18 SLP051 P0000 60000 T00780022 50009
KEVW 261353Z AUTO 06008KT 10SM OVC055 07/00 A2985 RMK AO2 SLP052 T00670000
KEVW 261253Z AUTO 04010KT 10SM BKN070 OVC090 06/00 A2984 RMK AO2 SLP049 T00560000
KEVW 261153Z AUTO 06013KT 10SM BKN075 OVC110 06/M02 A2981 RMK AO2 RAB1057E15 TSB06E21 SLP039 P0000 60000 7//// T00561022 10072 20050 56011
KEVW 261127Z AUTO 07013KT 10SM FEW060 SCT090 BKN110 06/M02 A2980 RMK AO2 LTG DSNT NE AND E RAB1057E15 TSB06E21 P0000 T00561022
KEVW 261106Z AUTO 08015KT 10SM -TSRA BKN060 BKN080 06/M02 A2982 RMK AO2 RAB1057 TSB06 P0000 T00611022
KEVW 261053Z AUTO 07012KT 10SM BKN065 OVC080 07/M03 A2982 RMK AO2 SLP034 T00721033
KEVW 260953Z AUTO 07009KT 10SM FEW070 OVC090 07/M03 A2983 RMK AO2 SLP036 T00721033
KEVW 260853Z AUTO 11009KT 10SM OVC090 07/M03 A2985 RMK AO2 SLP045 T00671028 58008
KEVW 260753Z AUTO 09008KT 10SM OVC090 07/M03 A2987 RMK AO2 SLP056 T00671033
KEVW 260653Z AUTO 16005KT 10SM OVC090 05/M03 A2990 RMK AO2 SLP065 T00501033 401390044
KEVW 260553Z AUTO 09006KT 10SM CLR 06/M04 A2988 RMK AO2 SLP061 T00611044 10122 20061 50007
KEVW 260453Z AUTO 09007KT 10SM CLR 06/M04 A2989 RMK AO2 SLP066 T00611039
KEVW 260353Z AUTO 02007KT 10SM CLR 08/M04 A2987 RMK AO2 SLP063 T00831044
KEVW 260253Z AUTO 30005KT 10SM CLR 09/M06 A2986 RMK AO2 SLP058 T00941061 52009
KEVW 260153Z AUTO 28007KT 10SM CLR 11/M05 A2985 RMK AO2 SLP055 T01111050
KEVW 260053Z AUTO 27013KT 10SM FEW110 12/M06 A2983 RMK AO2 SLP050 T01171061
KEVW 252353Z AUTO 27012G19KT 10SM CLR 12/M06 A2983 RMK AO2 SLP044 6//// T01221061 10139 20111 51005
KEVW 252253Z AUTO 29015G19KT 10SM CLR 13/M04 A2982 RMK AO2 PK WND 30026/2234 SLP039 T01331044
KEVW 252153Z AUTO 25014G23KT 10SM BKN070 14/M03 A2982 RMK AO2 SLP034 T01391028
KEVW 252053Z AUTO 27017G22KT 10SM BKN070 14/M02 A2981 RMK AO2 RAB15E31 SLP028 6//// T01391017
KEVW 251953Z AUTO 26016G24KT 10SM SCT055 BKN070 BKN120 12/M01 A2979 RMK AO2 RAB01E21 SLP023 T01171006 PNO $
KEVW 251853Z AUTO 26018KT 10SM 13/01 A2979 RMK AO2 SLP016 T01330006
KEVW 251753Z AUTO 25016G20KT 10SM 12/00 A2977 RMK AO2 SLP015 6//// T01220000 10122 20044 53003
KEVW 251653Z AUTO 26017G20KT 10SM BKN095 11/02 A2977 RMK AO2 SLP013 T01110022 PNO $
KEVW 251553Z AUTO 25013G20KT 10SM SCT027 SCT032 08/02 A2977 RMK AO2 SLP020 T00830022 PNO $
KEVW 251521Z AUTO 25010KT 10SM SCT024 08/03 A2976 RMK AO2 T00780033 PNO $
KEVW 251505Z AUTO 24014KT 10SM SCT020 BKN027 07/03 A2977 RMK AO2 T00720033 PNO $
KEVW 251453Z AUTO 23013KT 10SM SCT018 SCT027 07/04 A2976 RMK AO2 RAE04 SLP022 6//// T00670039 58007 PNO $
KEVW 251353Z AUTO 22009KT 10SM -RA FEW019 BKN031 OVC050 06/04 A2977 RMK AO2 RAB35 SLP016 T00560044 PNO $
KEVW 251253Z AUTO 19005KT 10SM FEW028 BKN042 OVC055 05/04 A2978 RMK AO2 RAE48 SLP013 T00500039 PNO $
KEVW 251153Z AUTO 23003KT 10SM -RA FEW030 BKN040 OVC050 05/03 A2979 RMK AO2 RAE02B37 SLP012 6//// 7//// T00500028 10111 20050 50013 PNO $
KEVW 251053Z AUTO 30004KT 10SM -RA FEW035 BKN044 OVC055 05/04 A2979 RMK AO2 SLP007 T00500039 PNO $
KEVW 250953Z AUTO 02011KT 10SM -RA FEW026 BKN037 OVC075 06/04 A2977 RMK AO2 SLP002 T00560039 PNO $


Page loaded:  20:54 UTC  |   01:54 PM Pacific  |   02:54 PM Mountain  |   03:54 PM Central  |   04:54 PM Eastern

 

ADVISORIES

FORECASTS

FORECASTS

OBSERVATIONS

USER TOOLS

ABOUT US